sensor_id;sensor_type;location;lat;lon;timestamp;P1;durP1;ratioP1;P2;durP2;ratioP2
8281;SDS011;25606;42.686;23.136;2023-09-07T00:00:31;0.47;;;0.47;;
8281;SDS011;25606;42.686;23.136;2023-09-07T00:03:00;0.50;;;0.50;;
8281;SDS011;25606;42.686;23.136;2023-09-07T00:05:27;0.60;;;0.60;;
8281;SDS011;25606;42.686;23.136;2023-09-07T00:07:55;0.50;;;0.50;;
8281;SDS011;25606;42.686;23.136;2023-09-07T00:10:22;0.60;;;0.60;;
8281;SDS011;25606;42.686;23.136;2023-09-07T00:12:50;0.50;;;0.50;;
8281;SDS011;25606;42.686;23.136;2023-09-07T00:15:18;0.50;;;0.50;;
8281;SDS011;25606;42.686;23.136;2023-09-07T00:17:46;0.47;;;0.47;;
8281;SDS011;25606;42.686;23.136;2023-09-07T00:20:15;0.47;;;0.47;;
8281;SDS011;25606;42.686;23.136;2023-09-07T00:22:44;0.73;;;0.70;;
8281;SDS011;25606;42.686;23.136;2023-09-07T00:25:11;0.50;;;0.50;;
8281;SDS011;25606;42.686;23.136;2023-09-07T00:27:39;0.50;;;0.50;;
8281;SDS011;25606;42.686;23.136;2023-09-07T00:30:06;0.53;;;0.53;;
8281;SDS011;25606;42.686;23.136;2023-09-07T00:32:35;0.73;;;0.73;;
8281;SDS011;25606;42.686;23.136;2023-09-07T00:35:03;0.57;;;0.57;;
8281;SDS011;25606;42.686;23.136;2023-09-07T00:37:31;0.53;;;0.53;;
8281;SDS011;25606;42.686;23.136;2023-09-07T00:39:59;0.57;;;0.53;;
8281;SDS011;25606;42.686;23.136;2023-09-07T00:42:28;0.70;;;0.67;;
8281;SDS011;25606;42.686;23.136;2023-09-07T00:44:55;0.50;;;0.50;;
8281;SDS011;25606;42.686;23.136;2023-09-07T00:47:23;0.47;;;0.47;;
8281;SDS011;25606;42.686;23.136;2023-09-07T00:49:50;0.60;;;0.60;;
8281;SDS011;25606;42.686;23.136;2023-09-07T00:52:17;0.67;;;0.60;;
8281;SDS011;25606;42.686;23.136;2023-09-07T00:54:47;0.50;;;0.50;;
8281;SDS011;25606;42.686;23.136;2023-09-07T00:57:14;0.50;;;0.50;;
8281;SDS011;25606;42.686;23.136;2023-09-07T00:59:41;0.77;;;0.73;;
8281;SDS011;25606;42.686;23.136;2023-09-07T01:02:08;0.83;;;0.80;;
8281;SDS011;25606;42.686;23.136;2023-09-07T01:04:36;0.63;;;0.63;;
8281;SDS011;25606;42.686;23.136;2023-09-07T01:07:05;0.53;;;0.53;;
8281;SDS011;25606;42.686;23.136;2023-09-07T01:09:35;0.70;;;0.67;;
8281;SDS011;25606;42.686;23.136;2023-09-07T01:12:05;0.50;;;0.50;;
8281;SDS011;25606;42.686;23.136;2023-09-07T01:14:35;0.57;;;0.57;;
8281;SDS011;25606;42.686;23.136;2023-09-07T01:17:03;0.40;;;0.40;;
8281;SDS011;25606;42.686;23.136;2023-09-07T01:19:30;0.43;;;0.43;;
8281;SDS011;25606;42.686;23.136;2023-09-07T01:21:59;0.57;;;0.53;;
8281;SDS011;25606;42.686;23.136;2023-09-07T01:24:27;0.40;;;0.40;;
8281;SDS011;25606;42.686;23.136;2023-09-07T01:26:55;0.53;;;0.53;;
8281;SDS011;25606;42.686;23.136;2023-09-07T01:29:22;0.70;;;0.70;;
8281;SDS011;25606;42.686;23.136;2023-09-07T01:31:50;0.47;;;0.47;;
8281;SDS011;25606;42.686;23.136;2023-09-07T01:34:17;0.63;;;0.63;;
8281;SDS011;25606;42.686;23.136;2023-09-07T01:36:44;0.60;;;0.60;;
8281;SDS011;25606;42.686;23.136;2023-09-07T01:39:13;0.60;;;0.60;;
8281;SDS011;25606;42.686;23.136;2023-09-07T01:41:41;0.53;;;0.53;;
8281;SDS011;25606;42.686;23.136;2023-09-07T01:44:08;0.57;;;0.57;;
8281;SDS011;25606;42.686;23.136;2023-09-07T01:46:36;0.53;;;0.53;;
8281;SDS011;25606;42.686;23.136;2023-09-07T01:49:03;0.67;;;0.67;;
8281;SDS011;25606;42.686;23.136;2023-09-07T01:51:30;0.50;;;0.50;;
8281;SDS011;25606;42.686;23.136;2023-09-07T01:53:57;0.63;;;0.63;;
8281;SDS011;25606;42.686;23.136;2023-09-07T01:56:26;0.90;;;0.90;;
8281;SDS011;25606;42.686;23.136;2023-09-07T01:58:53;0.50;;;0.50;;
8281;SDS011;25606;42.686;23.136;2023-09-07T02:01:21;0.43;;;0.43;;
8281;SDS011;25606;42.686;23.136;2023-09-07T02:03:48;0.70;;;0.70;;
8281;SDS011;25606;42.686;23.136;2023-09-07T02:06:16;0.53;;;0.53;;
8281;SDS011;25606;42.686;23.136;2023-09-07T02:08:43;0.50;;;0.50;;
8281;SDS011;25606;42.686;23.136;2023-09-07T02:11:10;0.53;;;0.53;;
8281;SDS011;25606;42.686;23.136;2023-09-07T02:13:41;0.60;;;0.60;;
8281;SDS011;25606;42.686;23.136;2023-09-07T02:16:08;0.50;;;0.50;;
8281;SDS011;25606;42.686;23.136;2023-09-07T02:18:35;0.63;;;0.63;;
8281;SDS011;25606;42.686;23.136;2023-09-07T02:21:05;0.50;;;0.50;;
8281;SDS011;25606;42.686;23.136;2023-09-07T02:23:32;0.60;;;0.60;;
8281;SDS011;25606;42.686;23.136;2023-09-07T02:26:00;0.50;;;0.50;;
8281;SDS011;25606;42.686;23.136;2023-09-07T02:28:28;0.57;;;0.57;;
8281;SDS011;25606;42.686;23.136;2023-09-07T02:31:01;0.50;;;0.50;;
8281;SDS011;25606;42.686;23.136;2023-09-07T02:33:29;0.50;;;0.50;;
8281;SDS011;25606;42.686;23.136;2023-09-07T02:35:57;1.00;;;0.97;;
8281;SDS011;25606;42.686;23.136;2023-09-07T02:38:24;0.50;;;0.50;;
8281;SDS011;25606;42.686;23.136;2023-09-07T02:40:51;0.50;;;0.50;;
8281;SDS011;25606;42.686;23.136;2023-09-07T02:43:19;0.53;;;0.53;;
8281;SDS011;25606;42.686;23.136;2023-09-07T02:45:48;0.53;;;0.53;;
8281;SDS011;25606;42.686;23.136;2023-09-07T02:48:17;0.80;;;0.70;;
8281;SDS011;25606;42.686;23.136;2023-09-07T02:50:51;0.67;;;0.67;;
8281;SDS011;25606;42.686;23.136;2023-09-07T02:53:28;0.43;;;0.43;;
8281;SDS011;25606;42.686;23.136;2023-09-07T02:55:55;0.50;;;0.50;;
8281;SDS011;25606;42.686;23.136;2023-09-07T02:58:23;0.60;;;0.60;;
8281;SDS011;25606;42.686;23.136;2023-09-07T03:00:50;0.50;;;0.50;;
8281;SDS011;25606;42.686;23.136;2023-09-07T03:03:19;0.53;;;0.53;;
8281;SDS011;25606;42.686;23.136;2023-09-07T03:05:46;0.43;;;0.43;;
8281;SDS011;25606;42.686;23.136;2023-09-07T03:08:13;0.43;;;0.43;;
8281;SDS011;25606;42.686;23.136;2023-09-07T03:10:41;0.63;;;0.63;;
8281;SDS011;25606;42.686;23.136;2023-09-07T03:13:09;0.50;;;0.50;;
8281;SDS011;25606;42.686;23.136;2023-09-07T03:15:36;0.50;;;0.50;;
8281;SDS011;25606;42.686;23.136;2023-09-07T03:18:04;0.70;;;0.70;;
8281;SDS011;25606;42.686;23.136;2023-09-07T03:20:34;0.53;;;0.53;;
8281;SDS011;25606;42.686;23.136;2023-09-07T03:23:01;1.73;;;1.60;;
8281;SDS011;25606;42.686;23.136;2023-09-07T03:25:28;0.60;;;0.60;;
8281;SDS011;25606;42.686;23.136;2023-09-07T03:27:56;0.63;;;0.63;;
8281;SDS011;25606;42.686;23.136;2023-09-07T03:30:23;0.50;;;0.50;;
8281;SDS011;25606;42.686;23.136;2023-09-07T03:32:51;0.50;;;0.50;;
8281;SDS011;25606;42.686;23.136;2023-09-07T03:35:18;0.60;;;0.60;;
8281;SDS011;25606;42.686;23.136;2023-09-07T03:37:47;0.57;;;0.57;;
8281;SDS011;25606;42.686;23.136;2023-09-07T03:40:14;0.53;;;0.53;;
8281;SDS011;25606;42.686;23.136;2023-09-07T03:42:41;0.60;;;0.60;;
8281;SDS011;25606;42.686;23.136;2023-09-07T03:45:10;0.50;;;0.50;;
8281;SDS011;25606;42.686;23.136;2023-09-07T03:47:38;0.30;;;0.30;;
8281;SDS011;25606;42.686;23.136;2023-09-07T03:50:05;0.50;;;0.50;;
8281;SDS011;25606;42.686;23.136;2023-09-07T03:52:33;0.40;;;0.40;;
8281;SDS011;25606;42.686;23.136;2023-09-07T03:55:01;0.67;;;0.67;;
8281;SDS011;25606;42.686;23.136;2023-09-07T03:57:29;0.53;;;0.53;;
8281;SDS011;25606;42.686;23.136;2023-09-07T03:59:56;0.43;;;0.43;;
8281;SDS011;25606;42.686;23.136;2023-09-07T04:02:24;0.47;;;0.47;;
8281;SDS011;25606;42.686;23.136;2023-09-07T04:04:51;0.57;;;0.57;;
8281;SDS011;25606;42.686;23.136;2023-09-07T04:07:19;0.40;;;0.40;;
8281;SDS011;25606;42.686;23.136;2023-09-07T04:09:46;0.40;;;0.40;;
8281;SDS011;25606;42.686;23.136;2023-09-07T04:12:15;0.47;;;0.47;;
8281;SDS011;25606;42.686;23.136;2023-09-07T04:14:42;0.43;;;0.43;;
8281;SDS011;25606;42.686;23.136;2023-09-07T04:17:10;0.60;;;0.60;;
8281;SDS011;25606;42.686;23.136;2023-09-07T04:19:37;0.50;;;0.50;;
8281;SDS011;25606;42.686;23.136;2023-09-07T04:22:04;0.47;;;0.47;;
8281;SDS011;25606;42.686;23.136;2023-09-07T04:24:32;0.47;;;0.47;;
8281;SDS011;25606;42.686;23.136;2023-09-07T04:26:59;0.40;;;0.40;;
8281;SDS011;25606;42.686;23.136;2023-09-07T04:29:28;0.43;;;0.43;;
8281;SDS011;25606;42.686;23.136;2023-09-07T04:31:55;0.40;;;0.40;;
8281;SDS011;25606;42.686;23.136;2023-09-07T04:34:22;0.50;;;0.50;;
8281;SDS011;25606;42.686;23.136;2023-09-07T04:36:50;0.43;;;0.43;;
8281;SDS011;25606;42.686;23.136;2023-09-07T04:39:17;0.43;;;0.43;;
8281;SDS011;25606;42.686;23.136;2023-09-07T04:41:44;0.37;;;0.37;;
8281;SDS011;25606;42.686;23.136;2023-09-07T04:44:12;0.60;;;0.60;;
8281;SDS011;25606;42.686;23.136;2023-09-07T04:46:40;0.47;;;0.47;;
8281;SDS011;25606;42.686;23.136;2023-09-07T04:49:07;0.60;;;0.60;;
8281;SDS011;25606;42.686;23.136;2023-09-07T04:51:36;0.37;;;0.37;;
8281;SDS011;25606;42.686;23.136;2023-09-07T04:54:03;0.60;;;0.60;;
8281;SDS011;25606;42.686;23.136;2023-09-07T04:56:29;0.70;;;0.70;;
8281;SDS011;25606;42.686;23.136;2023-09-07T04:58:57;0.57;;;0.57;;
8281;SDS011;25606;42.686;23.136;2023-09-07T05:01:24;0.43;;;0.43;;
8281;SDS011;25606;42.686;23.136;2023-09-07T05:03:52;0.47;;;0.47;;
8281;SDS011;25606;42.686;23.136;2023-09-07T05:06:20;0.50;;;0.50;;
8281;SDS011;25606;42.686;23.136;2023-09-07T05:08:48;0.47;;;0.47;;
8281;SDS011;25606;42.686;23.136;2023-09-07T05:11:15;0.40;;;0.40;;
8281;SDS011;25606;42.686;23.136;2023-09-07T05:13:43;0.50;;;0.50;;
8281;SDS011;25606;42.686;23.136;2023-09-07T05:16:10;0.40;;;0.40;;
8281;SDS011;25606;42.686;23.136;2023-09-07T05:18:37;1.07;;;1.00;;
8281;SDS011;25606;42.686;23.136;2023-09-07T05:21:12;0.60;;;0.60;;
8281;SDS011;25606;42.686;23.136;2023-09-07T05:23:39;0.53;;;0.53;;
8281;SDS011;25606;42.686;23.136;2023-09-07T05:26:07;0.43;;;0.43;;
8281;SDS011;25606;42.686;23.136;2023-09-07T05:28:34;0.50;;;0.50;;
8281;SDS011;25606;42.686;23.136;2023-09-07T05:31:01;0.40;;;0.40;;
8281;SDS011;25606;42.686;23.136;2023-09-07T05:33:29;0.47;;;0.47;;
8281;SDS011;25606;42.686;23.136;2023-09-07T05:35:56;0.40;;;0.40;;
8281;SDS011;25606;42.686;23.136;2023-09-07T05:38:25;0.43;;;0.43;;
8281;SDS011;25606;42.686;23.136;2023-09-07T05:40:52;0.40;;;0.40;;
8281;SDS011;25606;42.686;23.136;2023-09-07T05:43:19;0.40;;;0.40;;
8281;SDS011;25606;42.686;23.136;2023-09-07T05:45:47;0.60;;;0.60;;
8281;SDS011;25606;42.686;23.136;2023-09-07T05:48:14;0.33;;;0.33;;
8281;SDS011;25606;42.686;23.136;2023-09-07T05:50:43;0.47;;;0.47;;
8281;SDS011;25606;42.686;23.136;2023-09-07T05:53:10;0.40;;;0.40;;
8281;SDS011;25606;42.686;23.136;2023-09-07T05:55:39;0.57;;;0.57;;
8281;SDS011;25606;42.686;23.136;2023-09-07T05:58:07;0.33;;;0.33;;
8281;SDS011;25606;42.686;23.136;2023-09-07T06:00:35;0.40;;;0.40;;
8281;SDS011;25606;42.686;23.136;2023-09-07T06:03:04;0.43;;;0.43;;
8281;SDS011;25606;42.686;23.136;2023-09-07T06:05:32;0.53;;;0.53;;
8281;SDS011;25606;42.686;23.136;2023-09-07T06:08:00;0.37;;;0.37;;
8281;SDS011;25606;42.686;23.136;2023-09-07T06:10:27;0.50;;;0.50;;
8281;SDS011;25606;42.686;23.136;2023-09-07T06:12:56;0.43;;;0.43;;
8281;SDS011;25606;42.686;23.136;2023-09-07T06:15:24;0.40;;;0.40;;
8281;SDS011;25606;42.686;23.136;2023-09-07T06:17:52;0.60;;;0.60;;
8281;SDS011;25606;42.686;23.136;2023-09-07T06:20:19;0.50;;;0.50;;
8281;SDS011;25606;42.686;23.136;2023-09-07T06:22:46;0.83;;;0.83;;
8281;SDS011;25606;42.686;23.136;2023-09-07T06:25:14;0.77;;;0.77;;
8281;SDS011;25606;42.686;23.136;2023-09-07T06:27:41;1.00;;;0.93;;
8281;SDS011;25606;42.686;23.136;2023-09-07T06:30:10;0.63;;;0.63;;
8281;SDS011;25606;42.686;23.136;2023-09-07T06:32:38;0.60;;;0.60;;
8281;SDS011;25606;42.686;23.136;2023-09-07T06:35:05;0.57;;;0.57;;
8281;SDS011;25606;42.686;23.136;2023-09-07T06:37:33;0.70;;;0.70;;
8281;SDS011;25606;42.686;23.136;2023-09-07T06:40:01;1.00;;;0.97;;
8281;SDS011;25606;42.686;23.136;2023-09-07T06:42:29;0.83;;;0.77;;
8281;SDS011;25606;42.686;23.136;2023-09-07T06:44:57;1.23;;;0.93;;
8281;SDS011;25606;42.686;23.136;2023-09-07T06:47:25;2.13;;;1.13;;
8281;SDS011;25606;42.686;23.136;2023-09-07T06:49:53;3.57;;;1.70;;
8281;SDS011;25606;42.686;23.136;2023-09-07T06:52:20;5.03;;;2.03;;
8281;SDS011;25606;42.686;23.136;2023-09-07T06:54:48;4.73;;;1.73;;
8281;SDS011;25606;42.686;23.136;2023-09-07T06:57:17;6.20;;;2.50;;
8281;SDS011;25606;42.686;23.136;2023-09-07T06:59:45;6.63;;;2.23;;
8281;SDS011;25606;42.686;23.136;2023-09-07T07:02:12;4.37;;;1.60;;
8281;SDS011;25606;42.686;23.136;2023-09-07T07:04:41;5.23;;;2.13;;
8281;SDS011;25606;42.686;23.136;2023-09-07T07:07:11;4.23;;;1.93;;
8281;SDS011;25606;42.686;23.136;2023-09-07T07:09:38;2.33;;;1.37;;
8281;SDS011;25606;42.686;23.136;2023-09-07T07:12:06;3.73;;;1.63;;
8281;SDS011;25606;42.686;23.136;2023-09-07T07:14:33;5.40;;;2.10;;
8281;SDS011;25606;42.686;23.136;2023-09-07T07:17:00;3.00;;;1.53;;
8281;SDS011;25606;42.686;23.136;2023-09-07T07:19:29;2.33;;;1.30;;
8281;SDS011;25606;42.686;23.136;2023-09-07T07:21:58;1.93;;;1.07;;
8281;SDS011;25606;42.686;23.136;2023-09-07T07:24:25;2.47;;;1.53;;
8281;SDS011;25606;42.686;23.136;2023-09-07T07:26:52;3.00;;;1.73;;
8281;SDS011;25606;42.686;23.136;2023-09-07T07:29:20;1.70;;;1.20;;
8281;SDS011;25606;42.686;23.136;2023-09-07T07:31:47;1.87;;;1.13;;
8281;SDS011;25606;42.686;23.136;2023-09-07T07:34:14;1.27;;;1.00;;
8281;SDS011;25606;42.686;23.136;2023-09-07T07:36:42;1.83;;;1.27;;
8281;SDS011;25606;42.686;23.136;2023-09-07T07:39:11;0.87;;;0.73;;
8281;SDS011;25606;42.686;23.136;2023-09-07T07:41:38;1.53;;;1.17;;
8281;SDS011;25606;42.686;23.136;2023-09-07T07:44:05;1.47;;;1.17;;
8281;SDS011;25606;42.686;23.136;2023-09-07T07:46:33;1.03;;;0.83;;
8281;SDS011;25606;42.686;23.136;2023-09-07T07:49:00;1.17;;;0.97;;
8281;SDS011;25606;42.686;23.136;2023-09-07T07:51:27;1.17;;;1.00;;
8281;SDS011;25606;42.686;23.136;2023-09-07T07:53:55;0.87;;;0.83;;
8281;SDS011;25606;42.686;23.136;2023-09-07T07:56:23;0.90;;;0.73;;
8281;SDS011;25606;42.686;23.136;2023-09-07T07:58:51;1.40;;;1.13;;
8281;SDS011;25606;42.686;23.136;2023-09-07T08:01:18;1.17;;;0.93;;
8281;SDS011;25606;42.686;23.136;2023-09-07T08:03:46;1.10;;;0.87;;
8281;SDS011;25606;42.686;23.136;2023-09-07T08:06:13;0.90;;;0.73;;
8281;SDS011;25606;42.686;23.136;2023-09-07T08:08:41;1.40;;;1.03;;
8281;SDS011;25606;42.686;23.136;2023-09-07T08:11:08;1.03;;;0.80;;
8281;SDS011;25606;42.686;23.136;2023-09-07T08:13:37;0.97;;;0.90;;
8281;SDS011;25606;42.686;23.136;2023-09-07T08:16:04;1.40;;;1.00;;
8281;SDS011;25606;42.686;23.136;2023-09-07T08:18:32;1.10;;;0.93;;
8281;SDS011;25606;42.686;23.136;2023-09-07T08:21:00;1.23;;;1.00;;
8281;SDS011;25606;42.686;23.136;2023-09-07T08:23:28;0.90;;;0.77;;
8281;SDS011;25606;42.686;23.136;2023-09-07T08:25:55;1.33;;;1.03;;
8281;SDS011;25606;42.686;23.136;2023-09-07T08:28:23;2.00;;;1.23;;
8281;SDS011;25606;42.686;23.136;2023-09-07T08:30:52;1.93;;;1.20;;
8281;SDS011;25606;42.686;23.136;2023-09-07T08:33:20;1.43;;;0.97;;
8281;SDS011;25606;42.686;23.136;2023-09-07T08:35:53;1.33;;;1.03;;
8281;SDS011;25606;42.686;23.136;2023-09-07T08:38:21;1.67;;;1.07;;
8281;SDS011;25606;42.686;23.136;2023-09-07T08:40:51;2.10;;;1.33;;
8281;SDS011;25606;42.686;23.136;2023-09-07T08:43:19;1.93;;;1.30;;
8281;SDS011;25606;42.686;23.136;2023-09-07T08:45:48;2.47;;;1.40;;
8281;SDS011;25606;42.686;23.136;2023-09-07T08:48:20;3.97;;;1.83;;
8281;SDS011;25606;42.686;23.136;2023-09-07T08:50:47;1.73;;;1.07;;
8281;SDS011;25606;42.686;23.136;2023-09-07T08:53:17;2.23;;;1.23;;
8281;SDS011;25606;42.686;23.136;2023-09-07T08:55:45;1.77;;;1.13;;
8281;SDS011;25606;42.686;23.136;2023-09-07T08:58:12;2.67;;;2.03;;
8281;SDS011;25606;42.686;23.136;2023-09-07T09:00:40;2.37;;;1.13;;
8281;SDS011;25606;42.686;23.136;2023-09-07T09:03:08;2.70;;;1.30;;
8281;SDS011;25606;42.686;23.136;2023-09-07T09:05:38;2.23;;;1.13;;
8281;SDS011;25606;42.686;23.136;2023-09-07T09:08:06;2.80;;;1.37;;
8281;SDS011;25606;42.686;23.136;2023-09-07T09:10:33;4.13;;;1.93;;
8281;SDS011;25606;42.686;23.136;2023-09-07T09:13:00;4.73;;;1.77;;
8281;SDS011;25606;42.686;23.136;2023-09-07T09:15:28;3.13;;;1.47;;
8281;SDS011;25606;42.686;23.136;2023-09-07T09:17:55;1.63;;;0.77;;
8281;SDS011;25606;42.686;23.136;2023-09-07T09:20:22;3.87;;;1.57;;
8281;SDS011;25606;42.686;23.136;2023-09-07T09:22:52;5.20;;;1.87;;
8281;SDS011;25606;42.686;23.136;2023-09-07T09:25:19;3.93;;;1.60;;
8281;SDS011;25606;42.686;23.136;2023-09-07T09:27:46;4.40;;;1.77;;
8281;SDS011;25606;42.686;23.136;2023-09-07T09:30:14;4.40;;;1.73;;
8281;SDS011;25606;42.686;23.136;2023-09-07T09:32:42;4.37;;;1.90;;
8281;SDS011;25606;42.686;23.136;2023-09-07T09:35:09;2.30;;;1.10;;
8281;SDS011;25606;42.686;23.136;2023-09-07T09:37:43;4.40;;;1.70;;
8281;SDS011;25606;42.686;23.136;2023-09-07T09:40:12;3.90;;;1.70;;
8281;SDS011;25606;42.686;23.136;2023-09-07T09:42:41;4.50;;;1.93;;
8281;SDS011;25606;42.686;23.136;2023-09-07T09:45:09;5.23;;;2.07;;
8281;SDS011;25606;42.686;23.136;2023-09-07T09:47:38;3.90;;;1.50;;
8281;SDS011;25606;42.686;23.136;2023-09-07T09:50:06;4.07;;;1.57;;
8281;SDS011;25606;42.686;23.136;2023-09-07T09:52:33;7.00;;;2.50;;
8281;SDS011;25606;42.686;23.136;2023-09-07T09:55:02;4.47;;;1.70;;
8281;SDS011;25606;42.686;23.136;2023-09-07T09:57:32;4.53;;;1.67;;
8281;SDS011;25606;42.686;23.136;2023-09-07T09:59:59;6.40;;;2.10;;
8281;SDS011;25606;42.686;23.136;2023-09-07T10:02:35;5.67;;;1.97;;
8281;SDS011;25606;42.686;23.136;2023-09-07T10:05:04;5.27;;;1.83;;
8281;SDS011;25606;42.686;23.136;2023-09-07T10:07:41;5.87;;;2.17;;
8281;SDS011;25606;42.686;23.136;2023-09-07T10:10:12;5.93;;;2.03;;
8281;SDS011;25606;42.686;23.136;2023-09-07T10:12:41;4.50;;;1.67;;
8281;SDS011;25606;42.686;23.136;2023-09-07T10:15:21;5.40;;;1.93;;
8281;SDS011;25606;42.686;23.136;2023-09-07T10:17:49;6.97;;;2.53;;
8281;SDS011;25606;42.686;23.136;2023-09-07T10:20:18;6.13;;;2.33;;
8281;SDS011;25606;42.686;23.136;2023-09-07T10:22:48;5.40;;;1.83;;
8281;SDS011;25606;42.686;23.136;2023-09-07T10:25:19;5.03;;;1.80;;
8281;SDS011;25606;42.686;23.136;2023-09-07T10:27:48;8.73;;;2.73;;
8281;SDS011;25606;42.686;23.136;2023-09-07T10:30:16;6.47;;;2.27;;
8281;SDS011;25606;42.686;23.136;2023-09-07T10:32:49;6.10;;;2.03;;
8281;SDS011;25606;42.686;23.136;2023-09-07T10:35:18;7.10;;;2.20;;
8281;SDS011;25606;42.686;23.136;2023-09-07T10:37:47;6.40;;;2.13;;
8281;SDS011;25606;42.686;23.136;2023-09-07T10:40:18;7.80;;;2.57;;
8281;SDS011;25606;42.686;23.136;2023-09-07T10:42:46;6.17;;;2.10;;
8281;SDS011;25606;42.686;23.136;2023-09-07T10:45:15;8.80;;;2.57;;
8281;SDS011;25606;42.686;23.136;2023-09-07T10:47:43;7.53;;;2.20;;
8281;SDS011;25606;42.686;23.136;2023-09-07T10:50:11;11.53;;;3.13;;
8281;SDS011;25606;42.686;23.136;2023-09-07T10:52:39;9.57;;;2.63;;
8281;SDS011;25606;42.686;23.136;2023-09-07T10:55:07;8.60;;;2.43;;
8281;SDS011;25606;42.686;23.136;2023-09-07T10:57:42;9.40;;;2.60;;
8281;SDS011;25606;42.686;23.136;2023-09-07T11:00:10;8.17;;;2.43;;
8281;SDS011;25606;42.686;23.136;2023-09-07T11:02:41;8.27;;;2.43;;
8281;SDS011;25606;42.686;23.136;2023-09-07T11:05:08;7.30;;;2.13;;
8281;SDS011;25606;42.686;23.136;2023-09-07T11:07:36;11.37;;;3.40;;
8281;SDS011;25606;42.686;23.136;2023-09-07T11:10:05;7.13;;;2.17;;
8281;SDS011;25606;42.686;23.136;2023-09-07T11:12:36;11.70;;;3.30;;
8281;SDS011;25606;42.686;23.136;2023-09-07T11:15:04;7.80;;;2.23;;
8281;SDS011;25606;42.686;23.136;2023-09-07T11:17:31;13.03;;;3.23;;
8281;SDS011;25606;42.686;23.136;2023-09-07T11:20:02;6.40;;;2.00;;
8281;SDS011;25606;42.686;23.136;2023-09-07T11:22:31;5.87;;;1.77;;
8281;SDS011;25606;42.686;23.136;2023-09-07T11:25:00;6.90;;;2.10;;
8281;SDS011;25606;42.686;23.136;2023-09-07T11:27:29;7.07;;;2.20;;
8281;SDS011;25606;42.686;23.136;2023-09-07T11:29:56;6.90;;;2.13;;
8281;SDS011;25606;42.686;23.136;2023-09-07T11:32:23;8.43;;;2.30;;
8281;SDS011;25606;42.686;23.136;2023-09-07T11:34:51;7.33;;;2.17;;
8281;SDS011;25606;42.686;23.136;2023-09-07T11:37:22;6.43;;;1.93;;
8281;SDS011;25606;42.686;23.136;2023-09-07T11:39:49;6.03;;;1.90;;
8281;SDS011;25606;42.686;23.136;2023-09-07T11:42:17;10.23;;;3.00;;
8281;SDS011;25606;42.686;23.136;2023-09-07T11:44:44;9.87;;;2.80;;
8281;SDS011;25606;42.686;23.136;2023-09-07T11:47:11;10.43;;;3.10;;
8281;SDS011;25606;42.686;23.136;2023-09-07T11:49:39;7.30;;;2.23;;
8281;SDS011;25606;42.686;23.136;2023-09-07T11:52:07;12.03;;;3.13;;
8281;SDS011;25606;42.686;23.136;2023-09-07T11:54:35;10.23;;;3.20;;
8281;SDS011;25606;42.686;23.136;2023-09-07T11:57:03;7.67;;;2.33;;
8281;SDS011;25606;42.686;23.136;2023-09-07T11:59:30;9.17;;;2.60;;
8281;SDS011;25606;42.686;23.136;2023-09-07T12:01:57;8.00;;;2.50;;
8281;SDS011;25606;42.686;23.136;2023-09-07T12:04:25;7.20;;;2.10;;
8281;SDS011;25606;42.686;23.136;2023-09-07T12:06:53;7.07;;;2.17;;
8281;SDS011;25606;42.686;23.136;2023-09-07T12:09:20;9.07;;;2.67;;
8281;SDS011;25606;42.686;23.136;2023-09-07T12:11:49;8.43;;;2.70;;
8281;SDS011;25606;42.686;23.136;2023-09-07T12:14:16;6.97;;;2.27;;
8281;SDS011;25606;42.686;23.136;2023-09-07T12:16:44;8.47;;;2.80;;
8281;SDS011;25606;42.686;23.136;2023-09-07T12:19:12;4.87;;;1.70;;
8281;SDS011;25606;42.686;23.136;2023-09-07T12:21:39;5.97;;;1.90;;
8281;SDS011;25606;42.686;23.136;2023-09-07T12:24:10;7.03;;;2.27;;
8281;SDS011;25606;42.686;23.136;2023-09-07T12:26:38;8.07;;;2.57;;
8281;SDS011;25606;42.686;23.136;2023-09-07T12:29:07;7.20;;;2.23;;
8281;SDS011;25606;42.686;23.136;2023-09-07T12:31:35;6.57;;;2.07;;
8281;SDS011;25606;42.686;23.136;2023-09-07T12:34:02;6.33;;;1.83;;
8281;SDS011;25606;42.686;23.136;2023-09-07T12:36:30;7.37;;;2.27;;
8281;SDS011;25606;42.686;23.136;2023-09-07T12:38:57;8.90;;;2.40;;
8281;SDS011;25606;42.686;23.136;2023-09-07T12:41:26;11.03;;;2.93;;
8281;SDS011;25606;42.686;23.136;2023-09-07T12:43:54;7.93;;;2.33;;
8281;SDS011;25606;42.686;23.136;2023-09-07T12:46:24;6.23;;;1.77;;
8281;SDS011;25606;42.686;23.136;2023-09-07T12:48:51;10.20;;;2.63;;
8281;SDS011;25606;42.686;23.136;2023-09-07T12:51:24;9.53;;;2.47;;
8281;SDS011;25606;42.686;23.136;2023-09-07T12:53:51;9.00;;;2.47;;
8281;SDS011;25606;42.686;23.136;2023-09-07T12:56:19;9.80;;;2.63;;
8281;SDS011;25606;42.686;23.136;2023-09-07T12:58:47;9.90;;;2.67;;
8281;SDS011;25606;42.686;23.136;2023-09-07T13:01:14;10.13;;;2.63;;
8281;SDS011;25606;42.686;23.136;2023-09-07T13:03:45;7.03;;;2.07;;
8281;SDS011;25606;42.686;23.136;2023-09-07T13:06:12;6.10;;;1.97;;
8281;SDS011;25606;42.686;23.136;2023-09-07T13:08:42;6.23;;;1.97;;
8281;SDS011;25606;42.686;23.136;2023-09-07T13:11:12;10.23;;;2.57;;
8281;SDS011;25606;42.686;23.136;2023-09-07T13:13:39;11.27;;;2.97;;
8281;SDS011;25606;42.686;23.136;2023-09-07T13:16:06;11.10;;;3.03;;
8281;SDS011;25606;42.686;23.136;2023-09-07T13:18:34;10.67;;;3.13;;
8281;SDS011;25606;42.686;23.136;2023-09-07T13:21:03;9.53;;;2.73;;
8281;SDS011;25606;42.686;23.136;2023-09-07T13:23:30;10.20;;;2.80;;
8281;SDS011;25606;42.686;23.136;2023-09-07T13:25:58;9.37;;;2.87;;
8281;SDS011;25606;42.686;23.136;2023-09-07T13:28:26;11.70;;;3.33;;
8281;SDS011;25606;42.686;23.136;2023-09-07T13:30:53;10.27;;;2.93;;
8281;SDS011;25606;42.686;23.136;2023-09-07T13:33:21;12.30;;;3.63;;
8281;SDS011;25606;42.686;23.136;2023-09-07T13:35:57;10.97;;;3.00;;
8281;SDS011;25606;42.686;23.136;2023-09-07T13:38:27;8.87;;;2.40;;
8281;SDS011;25606;42.686;23.136;2023-09-07T13:40:54;6.60;;;2.03;;
8281;SDS011;25606;42.686;23.136;2023-09-07T13:43:21;16.77;;;4.13;;
8281;SDS011;25606;42.686;23.136;2023-09-07T13:45:52;14.67;;;6.43;;
8281;SDS011;25606;42.686;23.136;2023-09-07T13:48:23;6.87;;;2.07;;
8281;SDS011;25606;42.686;23.136;2023-09-07T13:50:51;23.13;;;12.87;;
8281;SDS011;25606;42.686;23.136;2023-09-07T13:53:19;13.00;;;3.33;;
8281;SDS011;25606;42.686;23.136;2023-09-07T13:55:52;18.10;;;4.60;;
8281;SDS011;25606;42.686;23.136;2023-09-07T13:58:20;11.40;;;3.60;;
8281;SDS011;25606;42.686;23.136;2023-09-07T14:00:55;17.03;;;4.57;;
8281;SDS011;25606;42.686;23.136;2023-09-07T14:03:22;15.83;;;4.30;;
8281;SDS011;25606;42.686;23.136;2023-09-07T14:05:49;12.90;;;3.73;;
8281;SDS011;25606;42.686;23.136;2023-09-07T14:08:19;9.40;;;2.90;;
8281;SDS011;25606;42.686;23.136;2023-09-07T14:10:53;6.30;;;2.43;;
8281;SDS011;25606;42.686;23.136;2023-09-07T14:13:21;7.40;;;2.43;;
8281;SDS011;25606;42.686;23.136;2023-09-07T14:15:48;6.73;;;2.33;;
8281;SDS011;25606;42.686;23.136;2023-09-07T14:18:18;5.47;;;1.87;;
8281;SDS011;25606;42.686;23.136;2023-09-07T14:20:45;5.67;;;2.17;;
8281;SDS011;25606;42.686;23.136;2023-09-07T14:23:15;7.27;;;2.60;;
8281;SDS011;25606;42.686;23.136;2023-09-07T14:25:48;5.60;;;2.17;;
8281;SDS011;25606;42.686;23.136;2023-09-07T14:28:16;7.53;;;2.73;;
8281;SDS011;25606;42.686;23.136;2023-09-07T14:30:44;8.30;;;3.60;;
8281;SDS011;25606;42.686;23.136;2023-09-07T14:33:11;5.40;;;1.90;;
8281;SDS011;25606;42.686;23.136;2023-09-07T14:35:39;5.43;;;1.87;;
8281;SDS011;25606;42.686;23.136;2023-09-07T14:38:07;7.23;;;2.73;;
8281;SDS011;25606;42.686;23.136;2023-09-07T14:40:34;5.80;;;1.97;;
8281;SDS011;25606;42.686;23.136;2023-09-07T14:43:03;8.77;;;2.80;;
8281;SDS011;25606;42.686;23.136;2023-09-07T14:45:45;6.20;;;2.10;;
8281;SDS011;25606;42.686;23.136;2023-09-07T14:48:13;4.93;;;2.03;;
8281;SDS011;25606;42.686;23.136;2023-09-07T14:50:40;5.83;;;1.97;;